sensor_id;sensor_type;location;lat;lon;timestamp;P1;durP1;ratioP1;P2;durP2;ratioP2
10440;SDS011;5268;49.346;9.522;2023-07-20T03:10:07;5.97;;;2.65;;
10440;SDS011;5268;49.346;9.522;2023-07-20T03:15:09;4.72;;;2.92;;
10440;SDS011;5268;49.346;9.522;2023-07-20T03:20:11;4.05;;;2.30;;
10440;SDS011;5268;49.346;9.522;2023-07-20T03:25:15;2.90;;;2.55;;
10440;SDS011;5268;49.346;9.522;2023-07-20T03:30:17;4.55;;;2.75;;
10440;SDS011;5268;49.346;9.522;2023-07-20T03:35:19;3.45;;;2.38;;
10440;SDS011;5268;49.346;9.522;2023-07-20T03:40:23;3.58;;;2.50;;
10440;SDS011;5268;49.346;9.522;2023-07-20T03:45:25;3.22;;;2.60;;
10440;SDS011;5268;49.346;9.522;2023-07-20T03:50:27;3.60;;;2.67;;
10440;SDS011;5268;49.346;9.522;2023-07-20T03:55:31;4.72;;;3.33;;
10440;SDS011;5268;49.346;9.522;2023-07-20T04:00:33;5.07;;;2.70;;
10440;SDS011;5268;49.346;9.522;2023-07-20T04:05:35;3.85;;;2.60;;
10440;SDS011;5268;49.346;9.522;2023-07-20T04:10:38;3.22;;;2.60;;
10440;SDS011;5268;49.346;9.522;2023-07-20T04:15:44;3.28;;;2.65;;
10440;SDS011;5268;49.346;9.522;2023-07-20T04:20:46;3.95;;;2.72;;
10440;SDS011;5268;49.346;9.522;2023-07-20T04:31:09;2.70;;;2.30;;
10440;SDS011;5268;49.346;9.522;2023-07-20T04:36:12;2.80;;;2.53;;
10440;SDS011;5268;49.346;9.522;2023-07-20T04:41:21;4.47;;;2.90;;
10440;SDS011;5268;49.346;9.522;2023-07-20T04:46:25;5.00;;;3.05;;
10440;SDS011;5268;49.346;9.522;2023-07-20T04:51:27;4.50;;;2.80;;
10440;SDS011;5268;49.346;9.522;2023-07-20T04:56:31;4.28;;;2.75;;
10440;SDS011;5268;49.346;9.522;2023-07-20T05:01:34;3.13;;;2.70;;
10440;SDS011;5268;49.346;9.522;2023-07-20T05:06:36;5.57;;;2.80;;
10440;SDS011;5268;49.346;9.522;2023-07-20T05:11:40;3.60;;;2.85;;
10440;SDS011;5268;49.346;9.522;2023-07-20T05:16:42;3.88;;;2.67;;
10440;SDS011;5268;49.346;9.522;2023-07-20T05:21:44;6.05;;;3.22;;
10440;SDS011;5268;49.346;9.522;2023-07-20T05:26:48;4.03;;;2.80;;
10440;SDS011;5268;49.346;9.522;2023-07-20T05:31:50;5.40;;;3.13;;
10440;SDS011;5268;49.346;9.522;2023-07-20T05:36:52;4.78;;;3.05;;
10440;SDS011;5268;49.346;9.522;2023-07-20T05:41:56;4.35;;;2.47;;
10440;SDS011;5268;49.346;9.522;2023-07-20T05:46:58;3.65;;;2.70;;
10440;SDS011;5268;49.346;9.522;2023-07-20T05:52:00;5.78;;;2.85;;
10440;SDS011;5268;49.346;9.522;2023-07-20T05:57:04;3.85;;;2.78;;
10440;SDS011;5268;49.346;9.522;2023-07-20T06:02:06;4.82;;;2.80;;
10440;SDS011;5268;49.346;9.522;2023-07-20T06:07:09;4.10;;;2.70;;
10440;SDS011;5268;49.346;9.522;2023-07-20T06:12:12;4.88;;;2.65;;
10440;SDS011;5268;49.346;9.522;2023-07-20T06:17:14;4.80;;;2.60;;
10440;SDS011;5268;49.346;9.522;2023-07-20T06:22:18;6.32;;;2.78;;
10440;SDS011;5268;49.346;9.522;2023-07-20T06:27:21;4.30;;;2.58;;
10440;SDS011;5268;49.346;9.522;2023-07-20T06:32:23;4.75;;;2.63;;
10440;SDS011;5268;49.346;9.522;2023-07-20T06:37:25;3.85;;;2.30;;
10440;SDS011;5268;49.346;9.522;2023-07-20T06:42:28;3.78;;;2.05;;
10440;SDS011;5268;49.346;9.522;2023-07-20T06:47:30;5.10;;;2.85;;
10440;SDS011;5268;49.346;9.522;2023-07-20T06:52:33;5.68;;;2.40;;
10440;SDS011;5268;49.346;9.522;2023-07-20T06:57:37;3.35;;;2.22;;
10440;SDS011;5268;49.346;9.522;2023-07-20T07:02:39;3.67;;;2.28;;
10440;SDS011;5268;49.346;9.522;2023-07-20T07:07:41;4.82;;;2.28;;
10440;SDS011;5268;49.346;9.522;2023-07-20T07:12:44;2.60;;;2.20;;
10440;SDS011;5268;49.346;9.522;2023-07-20T07:17:46;3.35;;;2.10;;
10440;SDS011;5268;49.346;9.522;2023-07-20T07:22:49;6.03;;;2.35;;
10440;SDS011;5268;49.346;9.522;2023-07-20T07:27:54;12.77;;;2.85;;
10440;SDS011;5268;49.346;9.522;2023-07-20T07:32:56;2.58;;;1.98;;
10440;SDS011;5268;49.346;9.522;2023-07-20T07:37:58;4.13;;;2.08;;
10440;SDS011;5268;49.346;9.522;2023-07-20T07:43:02;3.67;;;2.45;;
10440;SDS011;5268;49.346;9.522;2023-07-20T07:48:04;4.72;;;2.25;;
10440;SDS011;5268;49.346;9.522;2023-07-20T07:53:06;3.80;;;2.47;;
10440;SDS011;5268;49.346;9.522;2023-07-20T07:58:11;4.13;;;1.98;;
10440;SDS011;5268;49.346;9.522;2023-07-20T08:03:13;4.82;;;2.30;;
10440;SDS011;5268;49.346;9.522;2023-07-20T08:08:15;3.75;;;1.92;;
10440;SDS011;5268;49.346;9.522;2023-07-20T08:13:20;3.65;;;2.00;;
10440;SDS011;5268;49.346;9.522;2023-07-20T08:18:23;3.40;;;1.88;;
10440;SDS011;5268;49.346;9.522;2023-07-20T08:23:25;2.90;;;1.85;;
10440;SDS011;5268;49.346;9.522;2023-07-20T08:28:29;5.20;;;1.95;;
10440;SDS011;5268;49.346;9.522;2023-07-20T08:33:31;2.92;;;2.28;;
10440;SDS011;5268;49.346;9.522;2023-07-20T08:38:33;3.20;;;1.95;;
10440;SDS011;5268;49.346;9.522;2023-07-20T08:43:37;3.92;;;1.83;;
10440;SDS011;5268;49.346;9.522;2023-07-20T08:48:42;2.55;;;1.60;;
10440;SDS011;5268;49.346;9.522;2023-07-20T08:53:45;2.80;;;1.85;;
10440;SDS011;5268;49.346;9.522;2023-07-20T08:58:51;3.00;;;1.90;;
10440;SDS011;5268;49.346;9.522;2023-07-20T09:03:54;3.63;;;1.90;;
10440;SDS011;5268;49.346;9.522;2023-07-20T09:08:56;4.97;;;1.80;;
10440;SDS011;5268;49.346;9.522;2023-07-20T09:14:03;4.65;;;2.00;;
10440;SDS011;5268;49.346;9.522;2023-07-20T09:19:06;2.20;;;1.70;;
10440;SDS011;5268;49.346;9.522;2023-07-20T09:24:09;3.95;;;1.77;;
10440;SDS011;5268;49.346;9.522;2023-07-20T09:29:13;2.70;;;1.63;;
10440;SDS011;5268;49.346;9.522;2023-07-20T09:34:15;3.10;;;1.80;;
10440;SDS011;5268;49.346;9.522;2023-07-20T09:39:20;5.20;;;1.90;;
10440;SDS011;5268;49.346;9.522;2023-07-20T09:44:23;2.80;;;1.50;;
10440;SDS011;5268;49.346;9.522;2023-07-20T09:49:26;2.22;;;1.73;;
10440;SDS011;5268;49.346;9.522;2023-07-20T09:54:28;2.95;;;1.95;;
10440;SDS011;5268;49.346;9.522;2023-07-20T09:59:32;2.25;;;1.50;;
10440;SDS011;5268;49.346;9.522;2023-07-20T10:04:34;2.33;;;1.70;;
10440;SDS011;5268;49.346;9.522;2023-07-20T10:09:38;2.25;;;1.60;;
10440;SDS011;5268;49.346;9.522;2023-07-20T10:14:43;3.58;;;1.60;;
10440;SDS011;5268;49.346;9.522;2023-07-20T10:19:54;2.30;;;1.55;;
10440;SDS011;5268;49.346;9.522;2023-07-20T10:25:00;2.85;;;1.70;;
10440;SDS011;5268;49.346;9.522;2023-07-20T10:30:06;2.03;;;1.50;;
10440;SDS011;5268;49.346;9.522;2023-07-20T10:35:12;2.30;;;1.70;;
10440;SDS011;5268;49.346;9.522;2023-07-20T10:40:28;1.55;;;1.38;;
10440;SDS011;5268;49.346;9.522;2023-07-20T10:45:42;2.13;;;1.52;;
10440;SDS011;5268;49.346;9.522;2023-07-20T10:56:21;3.72;;;1.55;;
10440;SDS011;5268;49.346;9.522;2023-07-20T11:01:27;2.05;;;1.63;;
10440;SDS011;5268;49.346;9.522;2023-07-20T11:06:32;3.00;;;1.73;;
10440;SDS011;5268;49.346;9.522;2023-07-20T11:11:35;3.15;;;1.60;;
10440;SDS011;5268;49.346;9.522;2023-07-20T11:16:40;3.00;;;1.50;;
10440;SDS011;5268;49.346;9.522;2023-07-20T11:21:44;2.80;;;1.70;;
10440;SDS011;5268;49.346;9.522;2023-07-20T11:26:48;2.53;;;1.50;;
10440;SDS011;5268;49.346;9.522;2023-07-20T11:31:52;3.40;;;1.70;;
10440;SDS011;5268;49.346;9.522;2023-07-20T11:36:54;3.17;;;1.92;;
10440;SDS011;5268;49.346;9.522;2023-07-20T11:41:56;3.35;;;1.40;;
10440;SDS011;5268;49.346;9.522;2023-07-20T11:47:04;2.28;;;1.48;;
10440;SDS011;5268;49.346;9.522;2023-07-20T11:52:07;1.90;;;1.58;;
10440;SDS011;5268;49.346;9.522;2023-07-20T11:57:15;2.15;;;1.42;;
10440;SDS011;5268;49.346;9.522;2023-07-20T12:02:19;1.63;;;1.50;;
10440;SDS011;5268;49.346;9.522;2023-07-20T12:07:21;4.40;;;1.65;;
10440;SDS011;5268;49.346;9.522;2023-07-20T12:12:23;2.80;;;1.60;;
10440;SDS011;5268;49.346;9.522;2023-07-20T12:17:28;2.05;;;1.60;;
10440;SDS011;5268;49.346;9.522;2023-07-20T12:22:30;2.53;;;1.73;;
10440;SDS011;5268;49.346;9.522;2023-07-20T12:27:32;2.90;;;1.70;;
10440;SDS011;5268;49.346;9.522;2023-07-20T12:32:37;1.83;;;1.45;;
10440;SDS011;5268;49.346;9.522;2023-07-20T12:37:39;2.92;;;1.60;;
10440;SDS011;5268;49.346;9.522;2023-07-20T12:42:42;3.65;;;1.48;;
10440;SDS011;5268;49.346;9.522;2023-07-20T12:47:46;2.67;;;1.75;;
10440;SDS011;5268;49.346;9.522;2023-07-20T12:52:48;2.75;;;1.50;;
10440;SDS011;5268;49.346;9.522;2023-07-20T12:57:50;2.80;;;1.90;;
10440;SDS011;5268;49.346;9.522;2023-07-20T13:02:54;2.00;;;1.77;;
10440;SDS011;5268;49.346;9.522;2023-07-20T13:07:56;3.38;;;1.80;;
10440;SDS011;5268;49.346;9.522;2023-07-20T13:12:59;2.95;;;1.63;;
10440;SDS011;5268;49.346;9.522;2023-07-20T13:18:02;2.40;;;1.80;;
10440;SDS011;5268;49.346;9.522;2023-07-20T13:23:04;2.15;;;1.70;;
10440;SDS011;5268;49.346;9.522;2023-07-20T13:28:07;2.55;;;1.70;;
10440;SDS011;5268;49.346;9.522;2023-07-20T13:33:10;1.95;;;1.67;;
10440;SDS011;5268;49.346;9.522;2023-07-20T13:38:12;4.07;;;1.38;;
10440;SDS011;5268;49.346;9.522;2023-07-20T13:43:14;1.55;;;1.42;;
10440;SDS011;5268;49.346;9.522;2023-07-20T13:48:18;2.08;;;1.52;;
10440;SDS011;5268;49.346;9.522;2023-07-20T13:53:23;2.42;;;1.50;;
10440;SDS011;5268;49.346;9.522;2023-07-20T13:58:25;1.65;;;1.50;;
10440;SDS011;5268;49.346;9.522;2023-07-20T14:03:28;3.72;;;1.60;;
10440;SDS011;5268;49.346;9.522;2023-07-20T14:08:30;4.03;;;1.70;;
10440;SDS011;5268;49.346;9.522;2023-07-20T14:13:32;3.28;;;1.70;;
10440;SDS011;5268;49.346;9.522;2023-07-20T14:18:35;2.38;;;1.50;;
10440;SDS011;5268;49.346;9.522;2023-07-20T14:23:37;2.05;;;1.50;;
10440;SDS011;5268;49.346;9.522;2023-07-20T14:28:40;1.77;;;1.52;;
10440;SDS011;5268;49.346;9.522;2023-07-20T14:33:43;1.90;;;1.40;;
10440;SDS011;5268;49.346;9.522;2023-07-20T14:38:45;2.70;;;1.50;;
10440;SDS011;5268;49.346;9.522;2023-07-20T14:43:47;3.83;;;1.75;;
10440;SDS011;5268;49.346;9.522;2023-07-20T14:48:51;2.72;;;1.50;;
10440;SDS011;5268;49.346;9.522;2023-07-20T14:53:53;3.33;;;1.52;;
10440;SDS011;5268;49.346;9.522;2023-07-20T14:58:55;4.07;;;1.80;;
10440;SDS011;5268;49.346;9.522;2023-07-20T15:03:59;3.17;;;1.73;;
10440;SDS011;5268;49.346;9.522;2023-07-20T15:09:01;2.25;;;1.60;;
10440;SDS011;5268;49.346;9.522;2023-07-20T15:14:04;2.30;;;1.60;;
10440;SDS011;5268;49.346;9.522;2023-07-20T15:19:08;3.15;;;1.70;;
10440;SDS011;5268;49.346;9.522;2023-07-20T15:24:13;2.10;;;1.60;;
10440;SDS011;5268;49.346;9.522;2023-07-20T15:29:15;2.45;;;1.60;;
10440;SDS011;5268;49.346;9.522;2023-07-20T15:34:19;3.63;;;1.42;;
10440;SDS011;5268;49.346;9.522;2023-07-20T15:39:21;1.85;;;1.58;;
10440;SDS011;5268;49.346;9.522;2023-07-20T15:44:23;2.47;;;1.80;;
10440;SDS011;5268;49.346;9.522;2023-07-20T15:49:27;1.70;;;1.60;;
10440;SDS011;5268;49.346;9.522;2023-07-20T15:54:29;4.03;;;1.70;;
10440;SDS011;5268;49.346;9.522;2023-07-20T15:59:31;3.60;;;1.80;;
10440;SDS011;5268;49.346;9.522;2023-07-20T16:04:35;1.95;;;1.60;;
10440;SDS011;5268;49.346;9.522;2023-07-20T16:09:37;3.42;;;1.80;;
10440;SDS011;5268;49.346;9.522;2023-07-20T16:14:39;3.63;;;1.65;;
10440;SDS011;5268;49.346;9.522;2023-07-20T16:19:43;4.53;;;1.50;;
10440;SDS011;5268;49.346;9.522;2023-07-20T16:24:45;1.92;;;1.70;;
10440;SDS011;5268;49.346;9.522;2023-07-20T16:29:47;1.98;;;1.60;;
10440;SDS011;5268;49.346;9.522;2023-07-20T16:34:50;3.70;;;1.70;;
10440;SDS011;5268;49.346;9.522;2023-07-20T16:39:52;2.47;;;2.00;;
10440;SDS011;5268;49.346;9.522;2023-07-20T16:44:54;2.83;;;1.75;;
10440;SDS011;5268;49.346;9.522;2023-07-20T16:49:58;2.08;;;1.83;;
10440;SDS011;5268;49.346;9.522;2023-07-20T16:55:00;2.35;;;1.58;;
10440;SDS011;5268;49.346;9.522;2023-07-20T17:00:04;3.35;;;1.80;;
10440;SDS011;5268;49.346;9.522;2023-07-20T17:05:12;2.72;;;1.70;;
10440;SDS011;5268;49.346;9.522;2023-07-20T17:10:14;2.33;;;1.60;;
10440;SDS011;5268;49.346;9.522;2023-07-20T17:15:16;3.30;;;1.70;;
10440;SDS011;5268;49.346;9.522;2023-07-20T17:20:20;2.67;;;1.60;;
10440;SDS011;5268;49.346;9.522;2023-07-20T17:25:22;2.80;;;1.70;;
10440;SDS011;5268;49.346;9.522;2023-07-20T17:30:24;2.53;;;2.17;;
10440;SDS011;5268;49.346;9.522;2023-07-20T17:35:30;3.65;;;1.88;;
10440;SDS011;5268;49.346;9.522;2023-07-20T17:40:32;2.92;;;1.75;;
10440;SDS011;5268;49.346;9.522;2023-07-20T17:45:34;3.10;;;1.90;;
10440;SDS011;5268;49.346;9.522;2023-07-20T17:50:38;2.33;;;1.85;;
10440;SDS011;5268;49.346;9.522;2023-07-20T17:55:40;3.47;;;1.67;;
10440;SDS011;5268;49.346;9.522;2023-07-20T18:00:42;2.08;;;1.80;;
10440;SDS011;5268;49.346;9.522;2023-07-20T18:05:46;3.08;;;1.70;;
10440;SDS011;5268;49.346;9.522;2023-07-20T18:10:48;1.90;;;1.40;;
10440;SDS011;5268;49.346;9.522;2023-07-20T18:15:53;2.33;;;1.70;;
10440;SDS011;5268;49.346;9.522;2023-07-20T18:20:57;2.67;;;2.03;;
10440;SDS011;5268;49.346;9.522;2023-07-20T18:26:00;3.22;;;2.10;;
10440;SDS011;5268;49.346;9.522;2023-07-20T18:31:05;3.90;;;1.77;;
10440;SDS011;5268;49.346;9.522;2023-07-20T18:36:09;5.38;;;1.60;;
10440;SDS011;5268;49.346;9.522;2023-07-20T18:41:12;3.63;;;1.92;;
10440;SDS011;5268;49.346;9.522;2023-07-20T18:46:15;2.17;;;1.65;;
10440;SDS011;5268;49.346;9.522;2023-07-20T18:51:21;3.13;;;1.80;;
10440;SDS011;5268;49.346;9.522;2023-07-20T18:56:23;3.40;;;1.80;;
10440;SDS011;5268;49.346;9.522;2023-07-20T19:01:25;3.30;;;1.67;;
10440;SDS011;5268;49.346;9.522;2023-07-20T19:06:29;6.18;;;1.92;;
10440;SDS011;5268;49.346;9.522;2023-07-20T19:11:31;3.05;;;1.70;;
10440;SDS011;5268;49.346;9.522;2023-07-20T19:16:33;5.13;;;1.77;;
10440;SDS011;5268;49.346;9.522;2023-07-20T19:21:37;4.32;;;1.80;;
10440;SDS011;5268;49.346;9.522;2023-07-20T19:26:39;4.85;;;2.05;;
10440;SDS011;5268;49.346;9.522;2023-07-20T19:31:40;4.63;;;2.00;;
10440;SDS011;5268;49.346;9.522;2023-07-20T19:36:44;4.47;;;2.72;;
10440;SDS011;5268;49.346;9.522;2023-07-20T19:41:49;7.93;;;2.70;;
10440;SDS011;5268;49.346;9.522;2023-07-20T19:46:51;4.47;;;2.50;;
10440;SDS011;5268;49.346;9.522;2023-07-20T19:51:56;5.55;;;2.63;;
10440;SDS011;5268;49.346;9.522;2023-07-20T19:57:00;4.45;;;2.40;;
10440;SDS011;5268;49.346;9.522;2023-07-20T20:02:03;3.55;;;2.22;;
10440;SDS011;5268;49.346;9.522;2023-07-20T20:07:31;5.18;;;2.10;;
10440;SDS011;5268;49.346;9.522;2023-07-20T20:12:51;2.90;;;1.98;;
10440;SDS011;5268;49.346;9.522;2023-07-20T20:17:57;5.70;;;2.28;;
10440;SDS011;5268;49.346;9.522;2023-07-20T20:23:14;6.25;;;2.90;;
10440;SDS011;5268;49.346;9.522;2023-07-20T20:28:23;5.25;;;2.90;;
10440;SDS011;5268;49.346;9.522;2023-07-20T20:33:31;6.35;;;2.72;;
10440;SDS011;5268;49.346;9.522;2023-07-20T20:38:44;4.05;;;2.10;;
10440;SDS011;5268;49.346;9.522;2023-07-20T20:43:49;3.35;;;2.05;;
10440;SDS011;5268;49.346;9.522;2023-07-20T20:48:51;6.90;;;3.05;;
10440;SDS011;5268;49.346;9.522;2023-07-20T20:53:56;7.80;;;2.58;;
10440;SDS011;5268;49.346;9.522;2023-07-20T20:58:58;5.38;;;2.10;;
10440;SDS011;5268;49.346;9.522;2023-07-20T21:04:00;4.75;;;2.40;;
10440;SDS011;5268;49.346;9.522;2023-07-20T21:09:04;4.63;;;2.50;;
10440;SDS011;5268;49.346;9.522;2023-07-20T21:14:08;5.20;;;2.50;;
10440;SDS011;5268;49.346;9.522;2023-07-20T21:19:15;6.05;;;2.30;;
10440;SDS011;5268;49.346;9.522;2023-07-20T21:24:21;6.07;;;2.40;;
10440;SDS011;5268;49.346;9.522;2023-07-20T21:29:26;4.72;;;2.30;;
10440;SDS011;5268;49.346;9.522;2023-07-20T21:34:29;5.25;;;2.38;;
10440;SDS011;5268;49.346;9.522;2023-07-20T21:39:33;6.82;;;2.92;;
10440;SDS011;5268;49.346;9.522;2023-07-20T21:44:38;5.90;;;3.40;;
10440;SDS011;5268;49.346;9.522;2023-07-20T21:49:43;3.15;;;2.35;;
10440;SDS011;5268;49.346;9.522;2023-07-20T21:54:47;6.78;;;2.28;;
